kimptonhotels.com alexa rank chart, kimptonhotels.com alexa rank daily changes

kimptonhotels.com alexa rank chart, kimptonhotels.com alexa rank daily changes

kimptonhotels.com
Actual rank:
540 057

RANK HISTORY

Date Rank Diff
2018/05/25 540 057 +76 762
2018/05/24 463 295 +157 104
2018/05/23 306 191 -438 135
2018/05/22 744 326 +445 754
2018/05/21 298 572 -660 472
2018/05/20 959 044 +896 821
2018/05/19 62 223 -150 065
2018/05/18 212 288 -100 783
2018/05/17 313 071 -222 815
2018/05/16 535 886 -18 648
2018/05/12 554 534 +300 598
2018/05/11 253 936 -145 986
2018/05/10 399 922 +34 763
2018/05/09 365 159 +86 498
2018/05/07 278 661 -47 349
2018/05/06 326 010 -37 747
2018/05/05 363 757 -287 727
2018/05/04 651 484 -65 108
2018/04/30 716 592 -27 577
2018/04/29 744 169 +477 940
2018/04/28 266 229 -516 406
2018/04/27 782 635 +461 318
2018/04/26 321 317 -28 321
2018/04/25 349 638 -432 997
2018/04/23 782 635 +268 013
2018/04/21 514 622 +143 567
2018/04/20 371 055 -245 694
2018/04/19 616 749 +202 131
2018/04/18 414 618 +23 055
2018/04/17 391 563 -410 811
2018/04/16 802 374 +376 364
2018/04/15 426 010 +99 941
2018/04/14 326 069 -9 400
2018/04/13 335 469 -5 354
2018/04/12 340 823 -530 412
2018/04/10 871 235 +442 457
2018/04/09 428 778 -327 734
2018/04/08 756 512 -36 828
2018/04/07 793 340 +303 580
2018/04/06 489 760 +325 632
2018/04/05 164 128 -35 041
2018/04/04 199 169 -154 194
2018/04/03 353 363 +70 985
2018/04/02 282 378 -53 754
2018/04/01 336 132 +124 981
2018/03/31 211 151 +8 422
2018/03/30 202 729 -19 237
2018/03/29 221 966 -367 267
2018/03/28 589 233 +394 772
2018/03/27 194 461 -89 585
2018/03/26 284 046

WIDGET FOR YOUR SITE

DOMAINS WITH THE NEAREST RANK

Domain Rank
kierlandcommons.com 540 052
kiiitv.com 540 053
kikn.com 540 054
kimdutoit.com 540 055
kimithebuilderblog.com 540 056
kimptonhotels.com 540 057
kimskichicago.com 540 058
kindred.com 540 059
kinetic-vision.com 540 060
kinkweekly.com 540 061
kinky-clips.com 540 062

DOMAINS WITH THE NEAREST RANK BY TLD .com

Domain Rank
kierlandcommons.com 540 052
kiiitv.com 540 053
kikn.com 540 054
kimdutoit.com 540 055
kimithebuilderblog.com 540 056
kimptonhotels.com 540 057
kimskichicago.com 540 058
kindred.com 540 059
kinetic-vision.com 540 060
kinkweekly.com 540 061
kinky-clips.com 540 062